This demonstration page uses our WeatherBlox Daily Observations layout. Learn more.

36.17497, -115.13722

Hourly Observations for October 14, 2018

Temp ( °F °C ) Dew Point ( °F °C ) Humidity (%) Winds ( mph kmh ) Pressure ( in mb ) Visibility ( mi km ) Precip ( " mm )
12:53 am 00:53 Clear 63 17.2 49 9.4 60 60 NNE 5 7 29.8 1009 10 16.09344 0 0
1:53 am 01:53 Clear 63 17.2 48 8.9 58 58 NNE 7 11 29.83 1010 10 16.09344 0 0
2:53 am 02:53 Clear 62 16.7 43 6.1 50 50 N 7 11 29.83 1010 10 16.09344 0 0
3:53 am 03:53 Clear 61 16.1 44 6.7 54 54 N 6 9 29.83 1010 10 16.09344 0 0
4:53 am 04:53 Clear 61 16.1 47 8.3 60 60 N 7 11 29.85 1011 10 16.09344 0 0
5:53 am 05:53 Clear 64 17.8 21 -6.1 19 19 ENE 6 9 29.88 1012 10 16.09344 0 0
6:53 am 06:53 Sunny 62 16.7 17 -8.3 17 17 N 8 13 29.91 1013 10 16.09344 0 0
7:53 am 07:53 Sunny 63 17.2 13 -10.6 14 14 N 10 17 29.94 1014 10 16.09344 0 0
8:53 am 08:53 Sunny 66 18.9 15 -9.4 14 14 N 5 7 30 1016 10 16.09344 0 0
9:53 am 09:53 Sunny 68 20 14 -10 12 12 NNW 17 28 30 1016 10 16.09344 0 0
10:53 am 10:53 Sunny 70 21.1 13 -10.6 11 11 NNW 17 28 30 1016 10 16.09344 0 0
11:53 am 11:53 Sunny 71 21.7 10 -12.2 9 9 N 21 33 30 1016 10 16.09344 0 0
12:53 pm 12:53 Sunny 72 22.2 8 -13.3 8 8 N 20 31 30 1016 10 16.09344 0 0
1:53 pm 13:53 Sunny 73 22.8 5 -15 7 7 NNW 14 22 30 1016 10 16.09344 0 0
2:53 pm 14:53 Sunny 72 22.2 8 -13.3 8 8 NNE 14 22 30 1016 10 16.09344 0 0
3:53 pm 15:53 Sunny 71 21.7 12 -11.1 10 10 ENE 14 22 30 1016 10 16.09344 0 0
4:53 pm 16:53 Sunny 70 21.1 13 -10.6 11 11 ENE 18 30 30 1016 10 16.09344 0 0
5:53 pm 17:53 Sunny 67 19.4 13 -10.6 12 12 ENE 20 31 30.03 1017 10 16.09344 0 0
6:53 pm 18:53 Clear 63 17.2 15 -9.4 15 15 ENE 22 35 30.06 1018 10 16.09344 0 0
7:53 pm 19:53 Clear 61 16.1 14 -10 16 16 E 17 28 30.09 1019 10 16.09344 0 0
8:53 pm 20:53 Clear 61 16.1 11 -11.7 14 14 NE 13 20 30.12 1020 10 16.09344 0 0
9:53 pm 21:53 Clear 59 15 10 -12.2 14 14 ENE 13 20 30.15 1021 10 16.09344 0 0
10:53 pm 22:53 Clear 58 14.4 7 -13.9 13 13 NNE 9 15 30.18 1022 10 16.09344 0 0
11:53 pm 23:53 Clear 56 13.3 6 -14.4 13 13 ENE 10 17 30.21 1023 10 16.09344 0 0

Powered by AerisWeather